sensor_id;sensor_type;location;lat;lon;timestamp;temperature;humidity
26136;DHT22;13889;50.806;4.608;2022-09-09T00:04:03;16.00;99.90
26136;DHT22;13889;50.806;4.608;2022-09-09T00:06:52;15.90;99.90
26136;DHT22;13889;50.806;4.608;2022-09-09T00:09:23;15.90;99.90
26136;DHT22;13889;50.806;4.608;2022-09-09T00:12:55;15.90;99.90
26136;DHT22;13889;50.806;4.608;2022-09-09T00:14:54;15.90;99.90
26136;DHT22;13889;50.806;4.608;2022-09-09T00:17:31;16.00;99.90
26136;DHT22;13889;50.806;4.608;2022-09-09T00:20:05;16.00;99.90
26136;DHT22;13889;50.806;4.608;2022-09-09T00:22:40;15.90;99.90
26136;DHT22;13889;50.806;4.608;2022-09-09T00:25:15;15.90;99.90
26136;DHT22;13889;50.806;4.608;2022-09-09T00:27:50;15.90;99.90
26136;DHT22;13889;50.806;4.608;2022-09-09T00:30:17;15.90;99.90
26136;DHT22;13889;50.806;4.608;2022-09-09T00:32:46;16.00;99.90
26136;DHT22;13889;50.806;4.608;2022-09-09T00:35:25;15.90;99.90
26136;DHT22;13889;50.806;4.608;2022-09-09T00:37:54;15.90;99.90
26136;DHT22;13889;50.806;4.608;2022-09-09T00:40:28;15.90;99.90
26136;DHT22;13889;50.806;4.608;2022-09-09T00:45:45;15.90;99.90
26136;DHT22;13889;50.806;4.608;2022-09-09T00:48:16;15.90;99.90
26136;DHT22;13889;50.806;4.608;2022-09-09T00:50:59;15.90;99.90
26136;DHT22;13889;50.806;4.608;2022-09-09T00:56:25;16.00;99.90
26136;DHT22;13889;50.806;4.608;2022-09-09T00:59:42;16.00;99.90
26136;DHT22;13889;50.806;4.608;2022-09-09T01:02:13;16.00;99.90
26136;DHT22;13889;50.806;4.608;2022-09-09T01:04:42;16.10;99.90
26136;DHT22;13889;50.806;4.608;2022-09-09T01:07:19;16.10;99.90
26136;DHT22;13889;50.806;4.608;2022-09-09T01:09:52;16.10;99.90
26136;DHT22;13889;50.806;4.608;2022-09-09T01:12:34;16.10;99.90
26136;DHT22;13889;50.806;4.608;2022-09-09T01:15:03;16.10;99.90
26136;DHT22;13889;50.806;4.608;2022-09-09T01:17:47;16.00;99.90
26136;DHT22;13889;50.806;4.608;2022-09-09T01:20:27;16.10;99.90
26136;DHT22;13889;50.806;4.608;2022-09-09T01:23:26;16.20;99.90
26136;DHT22;13889;50.806;4.608;2022-09-09T01:26:26;16.20;99.90
26136;DHT22;13889;50.806;4.608;2022-09-09T01:28:55;16.20;99.90
26136;DHT22;13889;50.806;4.608;2022-09-09T01:31:35;16.20;99.90
26136;DHT22;13889;50.806;4.608;2022-09-09T01:34:02;16.20;99.90
26136;DHT22;13889;50.806;4.608;2022-09-09T01:37:23;16.20;99.90
26136;DHT22;13889;50.806;4.608;2022-09-09T01:39:34;16.20;99.90
26136;DHT22;13889;50.806;4.608;2022-09-09T01:42:01;16.10;99.90
26136;DHT22;13889;50.806;4.608;2022-09-09T01:44:27;16.10;99.90
26136;DHT22;13889;50.806;4.608;2022-09-09T01:46:53;16.20;99.90
26136;DHT22;13889;50.806;4.608;2022-09-09T01:49:19;16.10;99.90
26136;DHT22;13889;50.806;4.608;2022-09-09T01:51:51;16.10;99.90
26136;DHT22;13889;50.806;4.608;2022-09-09T01:54:19;16.10;99.90
26136;DHT22;13889;50.806;4.608;2022-09-09T02:08:11;16.00;99.90
26136;DHT22;13889;50.806;4.608;2022-09-09T02:10:56;16.00;99.90
26136;DHT22;13889;50.806;4.608;2022-09-09T02:13:25;16.00;99.90
26136;DHT22;13889;50.806;4.608;2022-09-09T02:19:11;15.90;99.90
26136;DHT22;13889;50.806;4.608;2022-09-09T02:21:31;15.90;99.90
26136;DHT22;13889;50.806;4.608;2022-09-09T02:23:59;15.90;99.90
26136;DHT22;13889;50.806;4.608;2022-09-09T02:26:31;15.80;99.90
26136;DHT22;13889;50.806;4.608;2022-09-09T02:29:02;15.90;99.90
26136;DHT22;13889;50.806;4.608;2022-09-09T02:31:28;15.90;99.90
26136;DHT22;13889;50.806;4.608;2022-09-09T02:33:57;15.90;99.90
26136;DHT22;13889;50.806;4.608;2022-09-09T02:36:28;15.90;99.90
26136;DHT22;13889;50.806;4.608;2022-09-09T02:38:55;15.90;99.90
26136;DHT22;13889;50.806;4.608;2022-09-09T02:41:30;15.90;99.90
26136;DHT22;13889;50.806;4.608;2022-09-09T02:43:56;15.90;99.90
26136;DHT22;13889;50.806;4.608;2022-09-09T02:54:24;15.90;99.90
26136;DHT22;13889;50.806;4.608;2022-09-09T02:56:53;15.80;99.90
26136;DHT22;13889;50.806;4.608;2022-09-09T02:59:20;15.90;99.90
26136;DHT22;13889;50.806;4.608;2022-09-09T03:01:46;15.90;99.90
26136;DHT22;13889;50.806;4.608;2022-09-09T03:04:13;16.00;99.90
26136;DHT22;13889;50.806;4.608;2022-09-09T03:06:38;16.00;99.90
26136;DHT22;13889;50.806;4.608;2022-09-09T03:09:04;16.00;99.90
26136;DHT22;13889;50.806;4.608;2022-09-09T03:11:30;16.00;99.90
26136;DHT22;13889;50.806;4.608;2022-09-09T03:13:56;16.00;99.90
26136;DHT22;13889;50.806;4.608;2022-09-09T03:16:22;15.90;99.90
26136;DHT22;13889;50.806;4.608;2022-09-09T03:18:48;16.00;99.90
26136;DHT22;13889;50.806;4.608;2022-09-09T03:21:15;15.90;99.90
26136;DHT22;13889;50.806;4.608;2022-09-09T03:23:40;15.90;99.90
26136;DHT22;13889;50.806;4.608;2022-09-09T03:26:06;15.90;99.90
26136;DHT22;13889;50.806;4.608;2022-09-09T03:28:32;15.90;99.90
26136;DHT22;13889;50.806;4.608;2022-09-09T03:31:00;15.90;99.90
26136;DHT22;13889;50.806;4.608;2022-09-09T03:33:25;15.90;99.90
26136;DHT22;13889;50.806;4.608;2022-09-09T03:35:52;16.00;99.90
26136;DHT22;13889;50.806;4.608;2022-09-09T03:38:18;16.00;99.90
26136;DHT22;13889;50.806;4.608;2022-09-09T03:40:51;16.10;99.90
26136;DHT22;13889;50.806;4.608;2022-09-09T03:43:24;16.10;99.90
26136;DHT22;13889;50.806;4.608;2022-09-09T03:45:50;16.10;99.90
26136;DHT22;13889;50.806;4.608;2022-09-09T03:48:17;16.00;99.90
26136;DHT22;13889;50.806;4.608;2022-09-09T03:50:51;16.00;99.90
26136;DHT22;13889;50.806;4.608;2022-09-09T03:53:18;16.00;99.90
26136;DHT22;13889;50.806;4.608;2022-09-09T03:55:49;16.00;99.90
26136;DHT22;13889;50.806;4.608;2022-09-09T03:58:18;16.10;99.90
26136;DHT22;13889;50.806;4.608;2022-09-09T04:01:13;16.00;99.90
26136;DHT22;13889;50.806;4.608;2022-09-09T04:03:43;16.10;99.90
26136;DHT22;13889;50.806;4.608;2022-09-09T04:06:11;16.10;99.90
26136;DHT22;13889;50.806;4.608;2022-09-09T04:08:39;16.00;99.90
26136;DHT22;13889;50.806;4.608;2022-09-09T04:11:05;16.00;99.90
26136;DHT22;13889;50.806;4.608;2022-09-09T04:13:36;16.10;99.90
26136;DHT22;13889;50.806;4.608;2022-09-09T04:16:06;16.10;99.90
26136;DHT22;13889;50.806;4.608;2022-09-09T04:18:32;16.10;99.90
26136;DHT22;13889;50.806;4.608;2022-09-09T04:20:59;16.20;99.90
26136;DHT22;13889;50.806;4.608;2022-09-09T04:23:26;16.20;99.90
26136;DHT22;13889;50.806;4.608;2022-09-09T04:25:56;16.30;99.90
26136;DHT22;13889;50.806;4.608;2022-09-09T04:28:25;16.40;99.90
26136;DHT22;13889;50.806;4.608;2022-09-09T04:30:50;16.50;99.90
26136;DHT22;13889;50.806;4.608;2022-09-09T04:33:16;16.50;99.90
26136;DHT22;13889;50.806;4.608;2022-09-09T04:35:47;16.50;99.90
26136;DHT22;13889;50.806;4.608;2022-09-09T04:38:13;16.50;99.90
26136;DHT22;13889;50.806;4.608;2022-09-09T04:40:41;16.60;99.90
26136;DHT22;13889;50.806;4.608;2022-09-09T04:43:08;16.60;99.90
26136;DHT22;13889;50.806;4.608;2022-09-09T04:45:34;16.50;99.90
26136;DHT22;13889;50.806;4.608;2022-09-09T04:48:00;16.50;99.90
26136;DHT22;13889;50.806;4.608;2022-09-09T04:50:27;16.40;99.90
26136;DHT22;13889;50.806;4.608;2022-09-09T04:52:53;16.30;99.90
26136;DHT22;13889;50.806;4.608;2022-09-09T04:55:19;16.30;99.90
26136;DHT22;13889;50.806;4.608;2022-09-09T04:57:45;16.30;99.90
26136;DHT22;13889;50.806;4.608;2022-09-09T05:00:11;16.30;99.90
26136;DHT22;13889;50.806;4.608;2022-09-09T05:02:39;16.30;99.90
26136;DHT22;13889;50.806;4.608;2022-09-09T05:05:05;16.30;99.90
26136;DHT22;13889;50.806;4.608;2022-09-09T05:07:31;16.30;99.90
26136;DHT22;13889;50.806;4.608;2022-09-09T05:09:57;16.30;99.90
26136;DHT22;13889;50.806;4.608;2022-09-09T05:12:23;16.20;99.90
26136;DHT22;13889;50.806;4.608;2022-09-09T05:14:51;16.30;99.90
26136;DHT22;13889;50.806;4.608;2022-09-09T05:17:17;16.30;99.90
26136;DHT22;13889;50.806;4.608;2022-09-09T05:19:43;16.30;99.90
26136;DHT22;13889;50.806;4.608;2022-09-09T05:22:10;16.40;99.90
26136;DHT22;13889;50.806;4.608;2022-09-09T05:24:37;16.40;99.90
26136;DHT22;13889;50.806;4.608;2022-09-09T05:27:03;16.50;99.90
26136;DHT22;13889;50.806;4.608;2022-09-09T05:29:32;16.60;99.90
26136;DHT22;13889;50.806;4.608;2022-09-09T05:32:12;16.70;99.90
26136;DHT22;13889;50.806;4.608;2022-09-09T05:34:40;16.80;99.90
26136;DHT22;13889;50.806;4.608;2022-09-09T05:37:06;16.80;99.90
26136;DHT22;13889;50.806;4.608;2022-09-09T05:39:33;16.90;99.90
26136;DHT22;13889;50.806;4.608;2022-09-09T05:41:59;16.90;99.90
26136;DHT22;13889;50.806;4.608;2022-09-09T05:44:24;17.00;99.90
26136;DHT22;13889;50.806;4.608;2022-09-09T05:46:53;17.20;99.90
26136;DHT22;13889;50.806;4.608;2022-09-09T05:49:19;17.20;99.90
26136;DHT22;13889;50.806;4.608;2022-09-09T05:51:46;17.40;99.90
26136;DHT22;13889;50.806;4.608;2022-09-09T05:54:12;17.40;99.90
26136;DHT22;13889;50.806;4.608;2022-09-09T05:56:40;17.50;99.90
26136;DHT22;13889;50.806;4.608;2022-09-09T05:59:06;17.70;99.90
26136;DHT22;13889;50.806;4.608;2022-09-09T06:01:34;17.70;99.90
26136;DHT22;13889;50.806;4.608;2022-09-09T06:04:00;17.70;99.90
26136;DHT22;13889;50.806;4.608;2022-09-09T06:06:29;17.60;99.90
26136;DHT22;13889;50.806;4.608;2022-09-09T06:08:56;17.70;99.90
26136;DHT22;13889;50.806;4.608;2022-09-09T06:11:27;17.70;99.90
26136;DHT22;13889;50.806;4.608;2022-09-09T06:13:56;17.60;99.90
26136;DHT22;13889;50.806;4.608;2022-09-09T06:16:23;17.70;99.90
26136;DHT22;13889;50.806;4.608;2022-09-09T06:18:50;17.80;99.90
26136;DHT22;13889;50.806;4.608;2022-09-09T06:21:44;17.80;99.90
26136;DHT22;13889;50.806;4.608;2022-09-09T06:24:10;17.80;99.90
26136;DHT22;13889;50.806;4.608;2022-09-09T06:26:39;17.70;99.90
26136;DHT22;13889;50.806;4.608;2022-09-09T06:29:08;17.80;99.90
26136;DHT22;13889;50.806;4.608;2022-09-09T06:31:35;17.80;99.90
26136;DHT22;13889;50.806;4.608;2022-09-09T06:34:04;17.80;99.90
26136;DHT22;13889;50.806;4.608;2022-09-09T06:36:32;18.00;99.90
26136;DHT22;13889;50.806;4.608;2022-09-09T06:38:59;18.20;99.90
26136;DHT22;13889;50.806;4.608;2022-09-09T06:41:27;18.20;99.90
26136;DHT22;13889;50.806;4.608;2022-09-09T06:43:53;18.40;99.90
26136;DHT22;13889;50.806;4.608;2022-09-09T06:46:20;18.40;99.90
26136;DHT22;13889;50.806;4.608;2022-09-09T06:48:47;18.60;99.90
26136;DHT22;13889;50.806;4.608;2022-09-09T06:51:21;18.80;99.90
26136;DHT22;13889;50.806;4.608;2022-09-09T06:53:50;18.80;99.90
26136;DHT22;13889;50.806;4.608;2022-09-09T06:58:42;18.70;99.90
26136;DHT22;13889;50.806;4.608;2022-09-09T07:01:14;18.50;99.90
26136;DHT22;13889;50.806;4.608;2022-09-09T07:03:41;18.40;99.90
26136;DHT22;13889;50.806;4.608;2022-09-09T07:06:09;18.40;99.90
26136;DHT22;13889;50.806;4.608;2022-09-09T07:08:39;18.40;99.90
26136;DHT22;13889;50.806;4.608;2022-09-09T07:11:06;18.40;99.90
26136;DHT22;13889;50.806;4.608;2022-09-09T07:13:32;18.30;99.90
26136;DHT22;13889;50.806;4.608;2022-09-09T07:16:10;18.30;99.90
26136;DHT22;13889;50.806;4.608;2022-09-09T07:18:36;18.50;99.90
26136;DHT22;13889;50.806;4.608;2022-09-09T07:21:03;18.60;99.90
26136;DHT22;13889;50.806;4.608;2022-09-09T07:23:29;18.70;99.90
26136;DHT22;13889;50.806;4.608;2022-09-09T07:25:56;18.90;99.90
26136;DHT22;13889;50.806;4.608;2022-09-09T07:28:23;19.00;99.90
26136;DHT22;13889;50.806;4.608;2022-09-09T07:30:59;19.00;99.90
26136;DHT22;13889;50.806;4.608;2022-09-09T07:33:27;18.90;99.90
26136;DHT22;13889;50.806;4.608;2022-09-09T07:35:53;18.90;99.90
26136;DHT22;13889;50.806;4.608;2022-09-09T07:38:20;18.70;99.90
26136;DHT22;13889;50.806;4.608;2022-09-09T07:40:46;18.70;99.90
26136;DHT22;13889;50.806;4.608;2022-09-09T07:43:12;18.70;99.90
26136;DHT22;13889;50.806;4.608;2022-09-09T07:45:38;18.60;99.90
26136;DHT22;13889;50.806;4.608;2022-09-09T07:48:04;18.50;99.90
26136;DHT22;13889;50.806;4.608;2022-09-09T07:50:31;18.60;99.90
26136;DHT22;13889;50.806;4.608;2022-09-09T07:52:56;18.80;99.90
26136;DHT22;13889;50.806;4.608;2022-09-09T07:55:22;19.20;99.90
26136;DHT22;13889;50.806;4.608;2022-09-09T07:57:53;19.50;99.90
26136;DHT22;13889;50.806;4.608;2022-09-09T08:00:19;19.60;99.90
26136;DHT22;13889;50.806;4.608;2022-09-09T08:02:47;19.70;99.90
26136;DHT22;13889;50.806;4.608;2022-09-09T08:05:13;19.80;99.90
26136;DHT22;13889;50.806;4.608;2022-09-09T08:07:40;20.00;99.90
26136;DHT22;13889;50.806;4.608;2022-09-09T08:10:06;20.30;99.90
26136;DHT22;13889;50.806;4.608;2022-09-09T08:12:32;20.50;99.90
26136;DHT22;13889;50.806;4.608;2022-09-09T08:14:58;20.60;99.90
26136;DHT22;13889;50.806;4.608;2022-09-09T08:17:23;20.50;99.90
26136;DHT22;13889;50.806;4.608;2022-09-09T08:19:49;20.40;99.90
26136;DHT22;13889;50.806;4.608;2022-09-09T08:22:15;20.40;99.90
26136;DHT22;13889;50.806;4.608;2022-09-09T08:24:40;20.60;99.90
26136;DHT22;13889;50.806;4.608;2022-09-09T08:27:06;20.70;99.90
26136;DHT22;13889;50.806;4.608;2022-09-09T08:29:32;20.70;99.90
26136;DHT22;13889;50.806;4.608;2022-09-09T08:31:58;20.70;99.90
26136;DHT22;13889;50.806;4.608;2022-09-09T08:34:25;20.70;99.90
26136;DHT22;13889;50.806;4.608;2022-09-09T08:36:52;20.80;99.90
26136;DHT22;13889;50.806;4.608;2022-09-09T08:39:20;20.70;99.90
26136;DHT22;13889;50.806;4.608;2022-09-09T08:58:32;19.50;99.90
26136;DHT22;13889;50.806;4.608;2022-09-09T09:04:00;19.40;99.90
26136;DHT22;13889;50.806;4.608;2022-09-09T09:09:04;19.40;99.90
26136;DHT22;13889;50.806;4.608;2022-09-09T09:11:38;19.30;99.90
26136;DHT22;13889;50.806;4.608;2022-09-09T09:14:15;19.30;99.90
26136;DHT22;13889;50.806;4.608;2022-09-09T09:16:53;19.30;99.90
26136;DHT22;13889;50.806;4.608;2022-09-09T09:19:20;19.30;99.90
26136;DHT22;13889;50.806;4.608;2022-09-09T09:21:51;19.20;99.90
26136;DHT22;13889;50.806;4.608;2022-09-09T09:24:54;19.30;99.90
26136;DHT22;13889;50.806;4.608;2022-09-09T09:27:33;19.20;99.90
26136;DHT22;13889;50.806;4.608;2022-09-09T09:30:02;19.10;99.90
26136;DHT22;13889;50.806;4.608;2022-09-09T09:32:33;19.10;99.90
26136;DHT22;13889;50.806;4.608;2022-09-09T09:35:02;19.20;99.90
26136;DHT22;13889;50.806;4.608;2022-09-09T09:37:33;19.20;99.90
26136;DHT22;13889;50.806;4.608;2022-09-09T09:40:17;19.30;99.90
26136;DHT22;13889;50.806;4.608;2022-09-09T09:42:55;19.30;99.90
26136;DHT22;13889;50.806;4.608;2022-09-09T09:45:41;19.30;99.90
26136;DHT22;13889;50.806;4.608;2022-09-09T09:48:12;19.40;99.90
26136;DHT22;13889;50.806;4.608;2022-09-09T09:56:01;19.60;99.90
26136;DHT22;13889;50.806;4.608;2022-09-09T09:58:31;19.70;99.90
26136;DHT22;13889;50.806;4.608;2022-09-09T10:00:59;19.80;99.90
26136;DHT22;13889;50.806;4.608;2022-09-09T10:03:28;19.90;99.90
26136;DHT22;13889;50.806;4.608;2022-09-09T10:05:55;19.90;99.90
26136;DHT22;13889;50.806;4.608;2022-09-09T10:08:23;19.70;99.90
26136;DHT22;13889;50.806;4.608;2022-09-09T10:13:46;19.60;99.90
26136;DHT22;13889;50.806;4.608;2022-09-09T10:19:07;19.50;99.90
26136;DHT22;13889;50.806;4.608;2022-09-09T10:24:45;19.50;99.90
26136;DHT22;13889;50.806;4.608;2022-09-09T10:30:18;19.30;99.90
26136;DHT22;13889;50.806;4.608;2022-09-09T10:35:35;19.30;99.90
26136;DHT22;13889;50.806;4.608;2022-09-09T10:38:16;19.30;99.90
26136;DHT22;13889;50.806;4.608;2022-09-09T10:51:40;19.50;99.90
26136;DHT22;13889;50.806;4.608;2022-09-09T10:56:58;19.70;99.90
26136;DHT22;13889;50.806;4.608;2022-09-09T10:59:30;20.00;99.90
26136;DHT22;13889;50.806;4.608;2022-09-09T11:02:21;20.00;99.90
26136;DHT22;13889;50.806;4.608;2022-09-09T11:04:57;20.10;99.90
26136;DHT22;13889;50.806;4.608;2022-09-09T11:07:38;20.20;99.90
26136;DHT22;13889;50.806;4.608;2022-09-09T11:13:03;20.40;99.90
26136;DHT22;13889;50.806;4.608;2022-09-09T11:15:39;20.30;99.90
26136;DHT22;13889;50.806;4.608;2022-09-09T11:18:13;20.60;99.90
26136;DHT22;13889;50.806;4.608;2022-09-09T11:20:43;20.60;99.90
26136;DHT22;13889;50.806;4.608;2022-09-09T11:23:27;20.60;99.90
26136;DHT22;13889;50.806;4.608;2022-09-09T11:26:00;20.70;99.90
26136;DHT22;13889;50.806;4.608;2022-09-09T11:28:45;20.80;99.90
26136;DHT22;13889;50.806;4.608;2022-09-09T11:40:19;21.30;99.90
26136;DHT22;13889;50.806;4.608;2022-09-09T11:42:48;21.30;99.90
26136;DHT22;13889;50.806;4.608;2022-09-09T11:45:25;21.30;99.90
26136;DHT22;13889;50.806;4.608;2022-09-09T11:47:54;21.60;99.90
26136;DHT22;13889;50.806;4.608;2022-09-09T11:52:49;21.60;99.90
26136;DHT22;13889;50.806;4.608;2022-09-09T11:55:30;21.70;99.90
26136;DHT22;13889;50.806;4.608;2022-09-09T12:00:41;21.90;99.90
26136;DHT22;13889;50.806;4.608;2022-09-09T12:06:19;22.20;99.90
26136;DHT22;13889;50.806;4.608;2022-09-09T12:08:53;22.20;99.90
26136;DHT22;13889;50.806;4.608;2022-09-09T12:11:28;22.00;99.90
26136;DHT22;13889;50.806;4.608;2022-09-09T12:13:56;21.90;99.90
26136;DHT22;13889;50.806;4.608;2022-09-09T12:16:36;21.80;99.90
26136;DHT22;13889;50.806;4.608;2022-09-09T12:19:23;21.50;99.90
26136;DHT22;13889;50.806;4.608;2022-09-09T12:24:56;21.90;99.90
26136;DHT22;13889;50.806;4.608;2022-09-09T12:27:29;22.20;99.90
26136;DHT22;13889;50.806;4.608;2022-09-09T12:30:16;22.30;99.90
26136;DHT22;13889;50.806;4.608;2022-09-09T12:32:42;22.30;99.90
26136;DHT22;13889;50.806;4.608;2022-09-09T12:35:11;22.40;99.90
26136;DHT22;13889;50.806;4.608;2022-09-09T12:38:34;22.40;99.90
26136;DHT22;13889;50.806;4.608;2022-09-09T12:41:00;22.50;99.90
26136;DHT22;13889;50.806;4.608;2022-09-09T12:43:27;22.40;99.90
26136;DHT22;13889;50.806;4.608;2022-09-09T12:45:57;22.40;99.90
26136;DHT22;13889;50.806;4.608;2022-09-09T12:48:39;22.30;99.90
26136;DHT22;13889;50.806;4.608;2022-09-09T12:51:18;22.50;99.90
26136;DHT22;13889;50.806;4.608;2022-09-09T12:53:45;22.40;99.90
26136;DHT22;13889;50.806;4.608;2022-09-09T12:56:19;22.20;99.90
26136;DHT22;13889;50.806;4.608;2022-09-09T12:58:48;22.30;99.90
26136;DHT22;13889;50.806;4.608;2022-09-09T13:01:31;22.40;99.90
26136;DHT22;13889;50.806;4.608;2022-09-09T13:03:59;22.40;99.90
26136;DHT22;13889;50.806;4.608;2022-09-09T13:06:29;22.40;99.90
26136;DHT22;13889;50.806;4.608;2022-09-09T13:08:57;22.30;99.90
26136;DHT22;13889;50.806;4.608;2022-09-09T13:11:35;22.40;99.90
26136;DHT22;13889;50.806;4.608;2022-09-09T13:14:02;22.30;99.90
26136;DHT22;13889;50.806;4.608;2022-09-09T13:16:30;22.30;99.90
26136;DHT22;13889;50.806;4.608;2022-09-09T13:18:59;22.30;99.90
26136;DHT22;13889;50.806;4.608;2022-09-09T13:21:36;22.10;99.90
26136;DHT22;13889;50.806;4.608;2022-09-09T13:24:04;22.10;99.90
26136;DHT22;13889;50.806;4.608;2022-09-09T13:26:33;22.20;99.90
26136;DHT22;13889;50.806;4.608;2022-09-09T13:29:17;22.40;99.90
26136;DHT22;13889;50.806;4.608;2022-09-09T13:31:43;22.30;99.90
26136;DHT22;13889;50.806;4.608;2022-09-09T13:34:28;22.30;99.90
26136;DHT22;13889;50.806;4.608;2022-09-09T13:37:05;22.10;99.90
26136;DHT22;13889;50.806;4.608;2022-09-09T13:39:36;22.30;99.90
26136;DHT22;13889;50.806;4.608;2022-09-09T13:42:03;22.30;99.90
26136;DHT22;13889;50.806;4.608;2022-09-09T13:44:36;22.20;99.90
26136;DHT22;13889;50.806;4.608;2022-09-09T13:47:18;22.40;99.90
26136;DHT22;13889;50.806;4.608;2022-09-09T13:49:48;22.50;99.90
26136;DHT22;13889;50.806;4.608;2022-09-09T13:52:19;22.60;99.90
26136;DHT22;13889;50.806;4.608;2022-09-09T13:54:48;22.60;99.90
26136;DHT22;13889;50.806;4.608;2022-09-09T13:57:17;22.50;99.90
26136;DHT22;13889;50.806;4.608;2022-09-09T13:59:45;22.70;99.90
26136;DHT22;13889;50.806;4.608;2022-09-09T14:02:10;22.70;99.90
26136;DHT22;13889;50.806;4.608;2022-09-09T14:04:36;22.60;99.90
26136;DHT22;13889;50.806;4.608;2022-09-09T14:07:02;22.80;99.90
26136;DHT22;13889;50.806;4.608;2022-09-09T14:09:28;22.90;99.90
26136;DHT22;13889;50.806;4.608;2022-09-09T14:11:54;23.00;99.90
26136;DHT22;13889;50.806;4.608;2022-09-09T14:14:20;22.90;99.90
26136;DHT22;13889;50.806;4.608;2022-09-09T14:16:46;22.90;99.90
26136;DHT22;13889;50.806;4.608;2022-09-09T14:19:12;22.90;99.90
26136;DHT22;13889;50.806;4.608;2022-09-09T14:21:38;22.60;99.90
26136;DHT22;13889;50.806;4.608;2022-09-09T14:24:04;22.50;99.90
26136;DHT22;13889;50.806;4.608;2022-09-09T14:26:30;22.50;99.90
26136;DHT22;13889;50.806;4.608;2022-09-09T14:28:56;22.60;99.90
26136;DHT22;13889;50.806;4.608;2022-09-09T14:31:22;22.90;99.90
26136;DHT22;13889;50.806;4.608;2022-09-09T14:33:48;23.00;99.90
26136;DHT22;13889;50.806;4.608;2022-09-09T14:36:14;23.30;99.90
26136;DHT22;13889;50.806;4.608;2022-09-09T14:38:40;23.30;99.90
26136;DHT22;13889;50.806;4.608;2022-09-09T14:41:14;23.30;99.90
26136;DHT22;13889;50.806;4.608;2022-09-09T14:43:44;23.40;99.90
26136;DHT22;13889;50.806;4.608;2022-09-09T14:46:13;23.50;99.90
26136;DHT22;13889;50.806;4.608;2022-09-09T14:48:39;23.40;99.90
26136;DHT22;13889;50.806;4.608;2022-09-09T14:51:23;23.30;99.90
26136;DHT22;13889;50.806;4.608;2022-09-09T14:53:54;23.20;99.90
26136;DHT22;13889;50.806;4.608;2022-09-09T14:56:22;23.10;99.90
26136;DHT22;13889;50.806;4.608;2022-09-09T14:58:48;23.10;99.90
26136;DHT22;13889;50.806;4.608;2022-09-09T15:01:16;22.90;99.90
26136;DHT22;13889;50.806;4.608;2022-09-09T15:03:50;22.80;99.90
26136;DHT22;13889;50.806;4.608;2022-09-09T15:06:16;22.70;99.90
26136;DHT22;13889;50.806;4.608;2022-09-09T15:08:44;22.80;99.90
26136;DHT22;13889;50.806;4.608;2022-09-09T15:11:11;23.10;99.90
26136;DHT22;13889;50.806;4.608;2022-09-09T15:13:38;23.10;99.90
26136;DHT22;13889;50.806;4.608;2022-09-09T15:16:06;23.00;99.90
26136;DHT22;13889;50.806;4.608;2022-09-09T15:18:33;22.70;99.90
26136;DHT22;13889;50.806;4.608;2022-09-09T15:20:59;22.50;99.90
26136;DHT22;13889;50.806;4.608;2022-09-09T15:23:27;22.30;99.90
26136;DHT22;13889;50.806;4.608;2022-09-09T15:25:56;21.90;99.90
26136;DHT22;13889;50.806;4.608;2022-09-09T15:28:22;21.80;99.90
26136;DHT22;13889;50.806;4.608;2022-09-09T15:30:52;21.70;99.90
26136;DHT22;13889;50.806;4.608;2022-09-09T15:33:19;21.70;99.90
26136;DHT22;13889;50.806;4.608;2022-09-09T15:35:45;21.90;99.90
26136;DHT22;13889;50.806;4.608;2022-09-09T15:38:11;22.10;99.90
26136;DHT22;13889;50.806;4.608;2022-09-09T15:40:42;22.10;99.90
26136;DHT22;13889;50.806;4.608;2022-09-09T15:43:08;22.10;99.90
26136;DHT22;13889;50.806;4.608;2022-09-09T15:45:36;22.10;99.90
26136;DHT22;13889;50.806;4.608;2022-09-09T15:48:03;22.10;99.90
26136;DHT22;13889;50.806;4.608;2022-09-09T15:50:29;22.20;99.90
26136;DHT22;13889;50.806;4.608;2022-09-09T15:52:59;22.10;99.90
26136;DHT22;13889;50.806;4.608;2022-09-09T15:55:25;22.10;99.90
26136;DHT22;13889;50.806;4.608;2022-09-09T15:57:51;22.10;99.90
26136;DHT22;13889;50.806;4.608;2022-09-09T16:00:18;22.00;99.90
26136;DHT22;13889;50.806;4.608;2022-09-09T16:02:46;22.10;99.90
26136;DHT22;13889;50.806;4.608;2022-09-09T16:05:12;22.00;99.90
26136;DHT22;13889;50.806;4.608;2022-09-09T16:07:38;22.10;99.90
26136;DHT22;13889;50.806;4.608;2022-09-09T16:10:03;22.20;99.90
26136;DHT22;13889;50.806;4.608;2022-09-09T16:12:29;22.20;99.90
26136;DHT22;13889;50.806;4.608;2022-09-09T16:14:55;22.10;99.90
26136;DHT22;13889;50.806;4.608;2022-09-09T16:17:21;22.00;99.90
26136;DHT22;13889;50.806;4.608;2022-09-09T16:19:47;21.90;99.90
26136;DHT22;13889;50.806;4.608;2022-09-09T16:22:12;21.80;99.90
26136;DHT22;13889;50.806;4.608;2022-09-09T16:24:40;21.90;99.90
26136;DHT22;13889;50.806;4.608;2022-09-09T16:27:06;22.00;99.90
26136;DHT22;13889;50.806;4.608;2022-09-09T16:29:32;21.70;99.90
26136;DHT22;13889;50.806;4.608;2022-09-09T16:31:58;21.70;99.90
26136;DHT22;13889;50.806;4.608;2022-09-09T16:34:25;21.50;99.90
26136;DHT22;13889;50.806;4.608;2022-09-09T16:36:51;21.40;99.90
26136;DHT22;13889;50.806;4.608;2022-09-09T16:39:20;21.40;99.90
26136;DHT22;13889;50.806;4.608;2022-09-09T16:41:47;21.20;99.90
26136;DHT22;13889;50.806;4.608;2022-09-09T16:44:14;21.00;99.90
26136;DHT22;13889;50.806;4.608;2022-09-09T16:46:42;20.90;99.90
26136;DHT22;13889;50.806;4.608;2022-09-09T16:49:13;20.90;99.90
26136;DHT22;13889;50.806;4.608;2022-09-09T16:51:45;20.60;99.90
26136;DHT22;13889;50.806;4.608;2022-09-09T16:54:15;20.50;99.90
26136;DHT22;13889;50.806;4.608;2022-09-09T16:56:44;20.20;99.90
26136;DHT22;13889;50.806;4.608;2022-09-09T16:59:18;19.70;99.90
26136;DHT22;13889;50.806;4.608;2022-09-09T17:01:45;19.50;99.90
26136;DHT22;13889;50.806;4.608;2022-09-09T17:04:16;19.30;99.90
26136;DHT22;13889;50.806;4.608;2022-09-09T17:06:46;19.10;99.90
26136;DHT22;13889;50.806;4.608;2022-09-09T17:09:13;19.00;99.90
26136;DHT22;13889;50.806;4.608;2022-09-09T17:11:39;18.90;99.90
26136;DHT22;13889;50.806;4.608;2022-09-09T17:14:05;18.90;99.90
26136;DHT22;13889;50.806;4.608;2022-09-09T17:16:32;18.80;99.90
26136;DHT22;13889;50.806;4.608;2022-09-09T17:19:02;19.00;99.90
26136;DHT22;13889;50.806;4.608;2022-09-09T17:21:29;18.90;99.90
26136;DHT22;13889;50.806;4.608;2022-09-09T17:23:56;19.00;99.90
26136;DHT22;13889;50.806;4.608;2022-09-09T17:26:24;19.00;99.90
26136;DHT22;13889;50.806;4.608;2022-09-09T17:28:52;19.00;99.90
26136;DHT22;13889;50.806;4.608;2022-09-09T17:31:18;19.00;99.90
26136;DHT22;13889;50.806;4.608;2022-09-09T17:33:49;18.90;99.90
26136;DHT22;13889;50.806;4.608;2022-09-09T17:36:17;19.10;99.90
26136;DHT22;13889;50.806;4.608;2022-09-09T17:38:44;18.90;99.90
26136;DHT22;13889;50.806;4.608;2022-09-09T17:41:15;18.90;99.90